< < Back
Terminal Aerodrome Forecast


Current Version              Previous Versions:   1  2  3  4  5  6  7  8  9  

Terminal Aerodrome Forecast

619
FTUS42 KJAX 221720
TAFGNV
TAF
KGNV 221720Z 2218/2318 02010KT P6SM SCT040 SCT100 BKN200
     FM230100 02004KT P6SM SCT030 SCT100 BKN200
     FM231400 06012G18KT P6SM SCT040=



Latest METAR

053
SAUS70 KWBC 222200
MTRGNV
METAR KGNV 222153Z 01011KT 10SM CLR 31/17 A3009 RMK AO2 SLP185
T03110167


USA.gov is the U.S. government's official web portal to all federal, state and local government web resources and services.